Archival Weather

Fayette Rgnl Air Cntr Arp

Fayette Rgnl Air Cntr Arp, Texas (K3T5)

Report from: Thursday, September 22, 2022 12:35 AM CDT
Current time: Friday, February 3, 2023 11:18 PM CST

Current weather
Weather history
Weather forecast

Temperature24.7°C (76.5°F)
Dew point21.9°C (71.4°F)
Winds 3 kts (1.5 m/s, 3.5 mph) South-Southwest (210°)
Visibility10 mi. (16.1 km)
Clouds Sky clear
Altimeter29.98 in.Hg (1015 mB)
Relative humidity84 %
Density altitude1,411 ft. (430 m)
Remarks Fully automated report
Automated weather observing station with precipitation discriminator
Flight conditions Visual Meteorological Conditions
Raw dataK3T5 220535Z AUTO 21003KT 10SM CLR 25/22 A2998 RMK AO2 T02470219
An unhandled exception has occurred. See browser dev tools for details. Reload 🗙